Time;durP1;ratioP1;P1;durP2;ratioP2;P2;SDS_P1;SDS_P2;PMS_P1;PMS_P2;Temp;Humidity;BMP_temperature;BMP_pressure;BME280_temperature;BME280_humidity;BME280_pressure;Samples;Min_cycle;Max_cycle;Signal;HPM_P1;HPM_P2
2021/05/19 00:02:54;;;;;;;8.70;3.20;;;;;;;15.35;76.82;99226.95;1685558;84;21442;-57
2021/05/19 00:05:59;;;;;;;7.62;3.40;;;;;;;15.25;77.10;99232.20;1684595;85;21241;-58
2021/05/19 00:09:05;;;;;;;8.18;3.60;;;;;;;15.14;77.36;99230.25;1683082;85;21235;-59
2021/05/19 00:12:10;;;;;;;7.22;3.55;;;;;;;15.06;77.66;99236.08;1684774;84;21172;-59
2021/05/19 00:15:21;;;;;;;7.87;3.08;;;;;;;15.02;77.94;99241.73;1685076;84;21242;-58
2021/05/19 00:18:29;;;;;;;9.00;3.17;;;;;;;15.01;78.25;99244.20;1685837;81;21236;-58
2021/05/19 00:21:36;;;;;;;7.95;3.22;;;;;;;15.05;78.40;99239.07;1659468;86;21816;-58
2021/05/19 00:24:42;;;;;;;9.25;3.58;;;;;;;15.08;78.51;99244.11;1674527;85;21220;-58
2021/05/19 00:27:48;;;;;;;6.83;2.92;;;;;;;15.16;78.64;99253.44;1706990;83;21600;-57
2021/05/19 00:30:56;;;;;;;5.95;3.35;;;;;;;15.25;78.52;99254.27;1706467;84;21263;-58
2021/05/19 00:34:02;;;;;;;6.03;3.40;;;;;;;15.32;78.32;99255.00;1706529;84;21255;-59
2021/05/19 00:37:10;;;;;;;6.10;3.30;;;;;;;15.37;78.15;99258.42;1706424;84;21205;-58
2021/05/19 00:40:17;;;;;;;7.50;4.47;;;;;;;15.39;78.01;99262.69;1706478;84;21229;-58
2021/05/19 00:43:25;;;;;;;8.43;5.08;;;;;;;15.40;77.97;99276.77;1706661;84;21209;-58
2021/05/19 00:46:30;;;;;;;8.33;5.22;;;;;;;15.39;77.96;99270.11;1706610;84;21284;-59
2021/05/19 00:49:38;;;;;;;9.90;5.95;;;;;;;15.38;78.04;99267.88;1706453;84;21224;-59
2021/05/19 00:52:44;;;;;;;9.40;6.30;;;;;;;15.39;78.16;99261.83;1706436;84;21271;-58
2021/05/19 00:55:51;;;;;;;10.78;6.35;;;;;;;15.42;78.13;99260.83;1706443;84;21251;-58
2021/05/19 00:59:00;;;;;;;8.73;5.45;;;;;;;15.44;78.13;99253.17;1706402;84;21300;-59
2021/05/19 01:02:11;;;;;;;9.98;6.62;;;;;;;15.44;78.14;99253.17;1706413;84;21249;-58
2021/05/19 01:05:34;;;;;;;6.72;4.92;;;;;;;15.44;78.18;99253.17;1706417;84;21369;-57
2021/05/19 01:12:06;;;;;;;7.83;4.78;;;;;;;15.47;78.22;99249.09;1706346;84;21259;-59
2021/05/19 01:15:13;;;;;;;7.30;4.00;;;;;;;15.52;78.13;99255.60;1706434;84;21283;-58
2021/05/19 01:18:20;;;;;;;7.90;4.62;;;;;;;15.60;78.09;99258.56;1706328;84;21307;-57
2021/05/19 01:21:27;;;;;;;9.08;4.30;;;;;;;15.62;77.70;99259.98;1709825;81;21229;-58
2021/05/19 01:24:35;;;;;;;12.60;4.03;;;;;;;15.63;77.54;99251.19;1710911;84;21789;-58
2021/05/19 01:27:40;;;;;;;6.75;4.47;;;;;;;15.64;77.39;99255.09;1710615;84;21220;-58
2021/05/19 01:30:46;;;;;;;6.92;4.20;;;;;;;15.64;77.15;99261.98;1709985;84;21303;-58
2021/05/19 01:33:52;;;;;;;9.88;5.83;;;;;;;15.61;76.94;99247.28;1710867;84;21628;-59
2021/05/19 01:36:57;;;;;;;11.70;5.03;;;;;;;15.60;76.72;99251.66;1710955;84;21208;-59
2021/05/19 01:40:02;;;;;;;8.28;5.87;;;;;;;15.62;76.69;99259.98;1709889;84;21263;-57
2021/05/19 01:43:09;;;;;;;8.88;5.22;;;;;;;15.65;76.60;99259.52;1710887;84;21268;-59
2021/05/19 01:46:18;;;;;;;8.85;5.67;;;;;;;15.70;76.52;99263.80;1710976;84;21228;-58
2021/05/19 01:49:30;;;;;;;11.90;5.95;;;;;;;15.72;76.40;99264.41;1710583;84;21256;-59
2021/05/19 01:52:38;;;;;;;10.95;5.62;;;;;;;15.69;76.25;99259.36;1710995;84;21227;-59
2021/05/19 01:55:44;;;;;;;12.25;5.87;;;;;;;15.66;76.23;99272.25;1710391;84;21260;-57
2021/05/19 01:58:50;;;;;;;9.88;5.05;;;;;;;15.63;76.29;99280.16;1710921;84;21263;-58
2021/05/19 02:01:50;;;;;;;10.78;5.30;;;;;;;15.64;76.26;99285.97;1710520;84;21268;-59
2021/05/19 02:04:46;;;;;;;9.63;4.70;;;;;;;15.62;76.08;99281.24;1710329;84;21263;-57
2021/05/19 02:07:34;;;;;;;9.83;4.80;;;;;;;15.62;76.04;99283.44;1672287;84;21792;-57
2021/05/19 02:10:26;;;;;;;7.45;4.78;;;;;;;15.65;76.06;99285.73;1690883;84;21990;-59
2021/05/19 02:13:16;;;;;;;8.93;4.67;;;;;;;15.66;75.94;99281.91;1710610;84;21284;-59
2021/05/19 02:16:10;;;;;;;6.83;4.22;;;;;;;15.69;75.83;99288.86;1710193;84;21264;-58
2021/05/19 02:18:59;;;;;;;12.95;4.83;;;;;;;15.69;75.64;99280.06;1690236;83;21240;-58
2021/05/19 02:22:04;;;;;;;7.55;5.05;;;;;;;15.71;75.45;99284.81;1711970;81;21240;-58
2021/05/19 02:25:13;;;;;;;12.75;5.70;;;;;;;15.75;75.51;99279.11;1716465;82;21243;-58
2021/05/19 02:28:19;;;;;;;7.47;4.75;;;;;;;15.82;75.40;99291.42;1716671;83;21248;-57
2021/05/19 02:31:23;;;;;;;9.28;4.92;;;;;;;15.84;75.23;99288.72;1716421;83;21208;-58
2021/05/19 02:34:28;;;;;;;9.50;5.55;;;;;;;15.85;75.16;99276.63;1698542;83;21354;-58
2021/05/19 02:37:33;;;;;;;11.05;6.53;;;;;;;15.86;75.12;99275.53;1716138;83;21223;-59
2021/05/19 02:40:40;;;;;;;10.58;6.80;;;;;;;15.88;74.91;99276.15;1716230;83;21224;-58
2021/05/19 02:43:46;;;;;;;12.78;7.20;;;;;;;15.88;74.85;99276.15;1716251;83;21216;-58
2021/05/19 02:46:56;;;;;;;9.58;8.55;;;;;;;15.92;74.82;99277.34;1716554;83;21251;-58
2021/05/19 02:50:02;;;;;;;12.28;9.15;;;;;;;15.95;74.70;99267.20;1716441;83;21238;-58
2021/05/19 02:53:08;;;;;;;14.85;10.35;;;;;;;16.01;74.63;99268.19;1716208;83;21256;-59
2021/05/19 02:56:14;;;;;;;13.10;10.25;;;;;;;16.06;74.50;99260.86;1716009;83;21224;-60
2021/05/19 02:59:19;;;;;;;19.57;11.03;;;;;;;16.11;74.23;99258.79;1716569;83;21258;-59
2021/05/19 03:02:27;;;;;;;14.70;11.15;;;;;;;16.17;74.16;99257.27;1716539;83;21251;-59
2021/05/19 03:05:33;;;;;;;16.35;12.85;;;;;;;16.23;73.94;99257.72;1716480;83;21315;-58
2021/05/19 03:08:38;;;;;;;18.92;14.58;;;;;;;16.28;73.64;99262.52;1716100;83;21244;-58
2021/05/19 03:11:44;;;;;;;17.90;14.90;;;;;;;16.28;73.47;99269.42;1716420;83;21239;-58
2021/05/19 03:14:50;;;;;;;17.15;14.35;;;;;;;16.33;73.42;99269.55;1716537;83;21748;-58
2021/05/19 03:17:58;;;;;;;16.57;14.87;;;;;;;16.37;73.31;99274.34;1716440;83;21626;-58
2021/05/19 03:21:04;;;;;;;18.00;15.28;;;;;;;16.41;73.02;99288.52;1716534;83;21251;-59
2021/05/19 03:24:12;;;;;;;18.42;14.90;;;;;;;16.41;72.91;99281.62;1716055;81;21224;-58
2021/05/19 03:27:19;;;;;;;19.07;15.40;;;;;;;16.40;72.95;99278.53;1716425;83;21247;-59
2021/05/19 03:30:26;;;;;;;19.37;14.55;;;;;;;16.41;73.07;99267.80;1716460;83;21255;-58
2021/05/19 03:33:35;;;;;;;14.53;13.00;;;;;;;16.44;73.24;99273.70;1716372;83;21231;-58
2021/05/19 03:36:43;;;;;;;20.57;12.90;;;;;;;16.50;73.39;99272.44;1716738;83;21271;-59
2021/05/19 03:39:48;;;;;;;16.82;12.93;;;;;;;16.54;73.50;99279.19;1716875;83;21299;-58
2021/05/19 03:42:55;;;;;;;21.25;13.93;;;;;;;16.59;73.53;99282.04;1716856;83;21296;-58
2021/05/19 03:46:03;;;;;;;17.92;13.68;;;;;;;16.65;73.52;99286.63;1717115;83;21232;-59
2021/05/19 03:49:12;;;;;;;16.02;12.93;;;;;;;16.72;73.41;99281.80;1716998;83;21232;-59
2021/05/19 03:52:18;;;;;;;15.43;12.90;;;;;;;16.78;73.24;99269.23;1716672;83;21240;-59
2021/05/19 03:55:24;;;;;;;17.45;11.93;;;;;;;16.82;73.14;99263.53;1716911;83;21275;-59
2021/05/19 03:58:31;;;;;;;13.88;11.85;;;;;;;16.86;72.92;99272.16;1716558;83;21216;-57
2021/05/19 04:01:39;;;;;;;14.13;10.28;;;;;;;16.90;72.89;99273.37;1717009;83;21232;-60
2021/05/19 04:04:45;;;;;;;14.83;12.35;;;;;;;16.97;72.34;99276.82;1716724;83;21268;-60
2021/05/19 04:07:50;;;;;;;13.72;11.48;;;;;;;16.99;71.96;99267.22;1716787;83;21244;-60
2021/05/19 04:10:57;;;;;;;13.15;11.38;;;;;;;17.00;70.96;99264.73;1717349;83;21291;-59
2021/05/19 04:14:03;;;;;;;15.00;12.05;;;;;;;17.02;70.23;99258.96;1717323;83;21279;-57
2021/05/19 04:17:09;;;;;;;15.55;11.88;;;;;;;17.05;69.51;99269.00;1716851;83;21200;-58
2021/05/19 04:20:21;;;;;;;17.23;11.85;;;;;;;17.08;69.46;99271.80;1716458;83;21224;-58
2021/05/19 04:23:26;;;;;;;16.67;11.20;;;;;;;17.05;68.70;99274.53;1714552;83;21299;-58
2021/05/19 04:26:33;;;;;;;14.25;10.43;;;;;;;17.00;68.39;99277.74;1708060;83;21277;-58
2021/05/19 04:29:39;;;;;;;13.70;9.98;;;;;;;16.93;68.18;99277.02;1706359;84;21291;-57
2021/05/19 04:32:45;;;;;;;10.93;9.75;;;;;;;16.89;68.12;99270.28;1705590;82;21272;-58
2021/05/19 04:35:51;;;;;;;15.28;10.45;;;;;;;16.84;68.16;99267.44;1708989;82;21797;-59
2021/05/19 04:39:01;;;;;;;13.00;10.75;;;;;;;16.77;68.56;99283.30;1679130;85;21966;-58
2021/05/19 04:42:07;;;;;;;12.28;9.48;;;;;;;16.73;69.07;99281.55;1678735;85;21354;-58
2021/05/19 04:45:14;;;;;;;11.57;8.28;;;;;;;16.77;69.19;99272.24;1693215;84;21796;-57
2021/05/19 04:48:19;;;;;;;17.62;8.43;;;;;;;16.77;68.88;99273.62;1696594;82;21251;-58
2021/05/19 04:51:28;;;;;;;12.25;8.40;;;;;;;16.78;68.97;99281.67;1693403;82;21737;-57
2021/05/19 04:54:34;;;;;;;10.98;8.08;;;;;;;16.84;68.56;99288.16;1696913;84;21204;-56
2021/05/19 04:57:41;;;;;;;9.98;7.12;;;;;;;16.93;68.12;99292.23;1703682;84;21532;-57
2021/05/19 05:00:49;;;;;;;11.22;7.70;;;;;;;17.01;67.66;99293.23;1706145;82;21330;-61
2021/05/19 05:03:55;;;;;;;9.03;8.13;;;;;;;17.07;67.49;99299.17;1706271;82;21636;-57
2021/05/19 05:07:01;;;;;;;11.30;9.00;;;;;;;17.07;67.56;99306.94;1704468;82;21219;-61
2021/05/19 05:10:06;;;;;;;16.65;9.58;;;;;;;17.11;67.80;99297.61;1685260;82;21290;-60
2021/05/19 05:13:13;;;;;;;12.98;8.75;;;;;;;17.10;67.81;99302.83;1677818;85;21797;-61
2021/05/19 05:16:18;;;;;;;16.95;10.38;;;;;;;17.09;68.03;99306.69;1678369;85;21215;-62
2021/05/19 05:19:23;;;;;;;11.33;9.30;;;;;;;17.08;68.15;99306.37;1678807;85;21651;-61
2021/05/19 05:22:30;;;;;;;10.13;8.48;;;;;;;17.12;68.13;99313.11;1679650;84;21296;-62
2021/05/19 05:25:36;;;;;;;16.75;11.38;;;;;;;17.18;67.86;99318.52;1670089;81;21891;-61
2021/05/19 05:28:42;;;;;;;15.95;11.95;;;;;;;17.24;67.40;99322.20;1657424;86;21234;-61
2021/05/19 05:31:52;;;;;;;18.87;12.23;;;;;;;17.29;67.45;99318.17;1658374;85;21361;-61
2021/05/19 05:34:56;;;;;;;15.53;11.45;;;;;;;17.34;67.04;99315.52;1647721;84;21284;-60
2021/05/19 05:38:04;;;;;;;11.90;9.38;;;;;;;17.43;67.07;99318.18;1649271;85;21248;-61
2021/05/19 05:41:10;;;;;;;11.83;8.33;;;;;;;17.57;66.76;99321.84;1654126;86;21232;-61
2021/05/19 05:44:15;;;;;;;11.80;9.88;;;;;;;17.64;66.17;99334.15;1625428;88;21873;-62
2021/05/19 05:47:20;;;;;;;13.88;9.85;;;;;;;17.65;65.59;99337.20;1627538;87;21216;-61
2021/05/19 05:50:26;;;;;;;14.80;9.98;;;;;;;17.60;65.19;99337.13;1654577;86;21804;-62
2021/05/19 05:53:32;;;;;;;10.28;9.18;;;;;;;17.55;65.03;99338.41;1654499;86;21714;-62
2021/05/19 05:56:46;;;;;;;11.93;9.60;;;;;;;17.59;65.04;99346.50;1653849;86;21718;-61
2021/05/19 05:59:49;;;;;;;12.30;9.88;;;;;;;17.62;65.11;99344.61;1654080;86;21359;-59
2021/05/19 06:02:58;;;;;;;19.70;12.13;;;;;;;17.72;64.89;99342.91;1620281;86;21312;-60
2021/05/19 06:06:08;;;;;;;15.25;12.00;;;;;;;17.81;64.78;99349.72;1702742;83;21214;-61
2021/05/19 06:09:16;;;;;;;14.10;11.57;;;;;;;17.96;64.30;99340.87;1690460;83;21231;-48
2021/05/19 06:12:22;;;;;;;16.82;13.83;;;;;;;18.11;63.79;99343.91;1706012;82;21211;-56
2021/05/19 06:15:29;;;;;;;14.68;12.80;;;;;;;18.20;63.18;99339.66;1686398;82;21290;-62
2021/05/19 06:18:36;;;;;;;20.90;13.53;;;;;;;18.25;62.77;99344.44;1704940;83;21537;-54
2021/05/19 06:21:41;;;;;;;17.55;14.98;;;;;;;18.27;62.70;99340.84;1703719;83;21315;-62
2021/05/19 06:24:48;;;;;;;17.52;13.80;;;;;;;18.38;62.86;99343.59;1686290;83;21227;-62
2021/05/19 06:27:54;;;;;;;23.20;15.35;;;;;;;18.50;62.39;99342.98;1713942;82;21816;-60
2021/05/19 06:31:00;;;;;;;22.42;16.50;;;;;;;18.54;62.47;99354.38;1714323;82;21220;-61
2021/05/19 06:34:05;;;;;;;18.17;16.00;;;;;;;18.53;62.48;99356.33;1647109;87;21215;-63
2021/05/19 06:37:12;;;;;;;19.10;16.97;;;;;;;18.48;62.37;99357.62;1677922;85;21211;-60
2021/05/19 06:40:18;;;;;;;23.92;17.37;;;;;;;18.37;62.41;99361.28;1678630;85;21248;-60
2021/05/19 06:43:23;;;;;;;16.85;15.03;;;;;;;18.26;62.58;99356.66;1706191;84;21212;-61
2021/05/19 06:46:30;;;;;;;20.08;15.50;;;;;;;18.21;62.73;99363.48;1744836;81;21173;-61
2021/05/19 06:49:35;;;;;;;18.77;13.25;;;;;;;18.25;63.03;99359.11;1734815;81;21433;-60
2021/05/19 06:52:47;;;;;;;14.33;12.90;;;;;;;18.39;62.92;99375.77;1734844;81;21502;-61
2021/05/19 06:55:57;;;;;;;15.23;13.62;;;;;;;18.42;61.81;99365.56;1728324;82;21189;-58
2021/05/19 06:59:04;;;;;;;18.57;14.45;;;;;;;18.43;61.97;99375.55;1647940;87;21228;-62
2021/05/19 07:02:12;;;;;;;18.87;13.80;;;;;;;18.47;61.99;99378.09;1711743;82;21191;-61
2021/05/19 07:05:18;;;;;;;19.52;13.72;;;;;;;18.55;61.95;99383.22;1733891;81;21345;-59
2021/05/19 07:08:24;;;;;;;15.68;12.53;;;;;;;18.67;62.19;99382.61;1734414;81;21179;-59
2021/05/19 07:11:29;;;;;;;16.12;12.88;;;;;;;18.81;61.35;99374.78;1733958;81;21199;-61
2021/05/19 07:14:45;;;;;;;16.48;13.60;;;;;;;18.93;60.65;99385.25;1734734;82;21298;-61
2021/05/19 07:17:44;;;;;;;19.02;13.28;;;;;;;18.99;59.71;99375.91;1699709;81;21239;-62
2021/05/19 07:20:54;;;;;;;20.05;13.75;;;;;;;19.07;59.34;99372.70;1675243;85;21222;-61
2021/05/19 07:24:02;;;;;;;29.72;15.80;;;;;;;19.15;59.14;99373.08;1707439;83;21224;-61
2021/05/19 07:27:13;;;;;;;17.52;13.50;;;;;;;19.22;58.92;99375.67;1676832;82;21407;-62
2021/05/19 07:30:21;;;;;;;15.45;11.43;;;;;;;19.23;58.25;99384.31;1675910;84;21222;-62
2021/05/19 07:33:28;;;;;;;17.12;10.85;;;;;;;19.16;57.89;99380.33;1654226;85;21474;-56
2021/05/19 07:36:38;;;;;;;17.07;10.70;;;;;;;19.04;57.97;99382.92;1686902;83;21392;-59
2021/05/19 07:39:47;;;;;;;14.15;12.63;;;;;;;18.88;58.19;99384.63;1655122;86;21264;-58
2021/05/19 07:42:56;;;;;;;17.82;12.47;;;;;;;18.85;58.35;99372.62;1689729;83;21827;-58
2021/05/19 07:46:01;;;;;;;16.23;12.25;;;;;;;19.09;58.64;99380.23;1655741;84;21252;-57
2021/05/19 07:49:07;;;;;;;13.75;12.18;;;;;;;19.33;57.95;99374.75;1684091;85;21718;-58
2021/05/19 07:52:15;;;;;;;14.50;13.00;;;;;;;19.52;57.35;99378.89;1665936;84;21243;-58
2021/05/19 07:55:30;;;;;;;17.62;13.43;;;;;;;19.64;57.54;99380.16;1674971;83;21232;-58
2021/05/19 08:02:01;;;;;;;17.07;13.25;;;;;;;19.93;56.46;99377.47;1655696;86;21371;-59
2021/05/19 08:04:52;;;;;;;16.93;13.90;;;;;;;19.95;56.02;99381.66;1691059;83;21231;-59
2021/05/19 08:07:57;;;;;;;18.35;13.35;;;;;;;19.88;55.27;99382.42;1662238;86;21200;-59
2021/05/19 08:11:03;;;;;;;16.60;13.13;;;;;;;19.91;55.21;99381.05;1691078;84;21201;-58
2021/05/19 08:14:10;;;;;;;14.55;12.98;;;;;;;20.02;55.04;99378.14;1656370;86;21390;-60
2021/05/19 08:17:19;;;;;;;15.83;12.43;;;;;;;20.09;55.01;99373.77;1690524;85;21395;-57
2021/05/19 08:20:23;;;;;;;16.95;13.25;;;;;;;20.28;54.67;99371.75;1655889;86;21248;-57
2021/05/19 08:23:29;;;;;;;17.62;14.10;;;;;;;20.40;54.43;99379.94;1672689;85;21584;-57
2021/05/19 08:26:35;;;;;;;14.80;12.80;;;;;;;20.48;54.64;99377.53;1656145;84;21907;-56
2021/05/19 08:29:42;;;;;;;16.20;12.18;;;;;;;20.54;54.21;99376.46;1683863;82;21596;-57
2021/05/19 08:32:46;;;;;;;14.65;12.85;;;;;;;20.56;53.90;99372.02;1659327;86;21881;-57
2021/05/19 08:35:51;;;;;;;16.23;12.20;;;;;;;20.60;54.18;99367.05;1675496;84;21324;-57
2021/05/19 08:38:58;;;;;;;21.02;11.10;;;;;;;20.71;54.21;99379.09;1659003;86;21295;-58
2021/05/19 08:42:02;;;;;;;16.62;11.33;;;;;;;20.85;54.09;99369.76;1675709;84;21405;-58
2021/05/19 08:45:07;;;;;;;11.55;9.50;;;;;;;21.05;53.75;99369.92;1659828;86;22040;-59
2021/05/19 08:48:14;;;;;;;13.72;9.90;;;;;;;21.08;52.57;99364.67;1675688;84;21842;-59
2021/05/19 08:51:19;;;;;;;12.90;9.25;;;;;;;21.00;52.40;99379.08;1675947;85;21964;-58
2021/05/19 08:54:26;;;;;;;13.48;10.28;;;;;;;20.89;52.48;99372.27;1674978;85;21707;-60
2021/05/19 08:57:34;;;;;;;9.98;7.53;;;;;;;21.04;53.86;99362.11;1647436;86;21205;-57
2021/05/19 09:00:40;;;;;;;7.53;6.70;;;;;;;21.30;53.27;99359.78;1647555;85;21524;-58
2021/05/19 09:03:45;;;;;;;8.45;6.62;;;;;;;21.50;52.22;99361.27;1647679;86;21276;-57
2021/05/19 09:06:54;;;;;;;11.08;7.10;;;;;;;21.62;50.66;99361.91;1679215;83;21216;-59
2021/05/19 09:10:00;;;;;;;9.40;7.78;;;;;;;21.66;50.93;99356.63;1670171;85;21231;-59
2021/05/19 09:13:06;;;;;;;10.45;6.60;;;;;;;21.86;50.86;99349.22;1689863;83;21963;-60
2021/05/19 09:16:15;;;;;;;7.60;6.30;;;;;;;21.97;50.47;99339.77;1674945;84;21251;-58
2021/05/19 09:19:21;;;;;;;23.95;7.78;;;;;;;21.95;50.01;99340.59;1671121;84;21193;-57
2021/05/19 09:22:36;;;;;;;12.28;7.37;;;;;;;22.00;50.36;99331.40;1677990;84;21196;-56
2021/05/19 09:25:41;;;;;;;11.70;7.62;;;;;;;22.08;50.21;99323.34;1651653;85;21296;-58
2021/05/19 09:28:48;;;;;;;10.38;6.42;;;;;;;22.07;50.57;99317.47;1677018;84;21237;-57
2021/05/19 09:32:16;;;;;;;8.95;6.40;;;;;;;22.12;50.27;99307.73;1684708;83;21246;-57
2021/05/19 09:35:22;;;;;;;8.75;6.80;;;;;;;22.15;50.40;99307.17;1679625;83;21186;-58
2021/05/19 09:38:39;;;;;;;10.45;7.95;;;;;;;22.33;50.31;99315.55;1679011;84;21321;-57
2021/05/19 09:41:45;;;;;;;15.18;7.42;;;;;;;22.46;50.31;99316.95;1671068;84;21198;-56
2021/05/19 09:44:50;;;;;;;7.40;6.35;;;;;;;22.60;49.43;99316.70;1652845;85;21223;-56
2021/05/19 09:47:56;;;;;;;9.10;6.53;;;;;;;22.57;48.86;99313.08;1645047;87;21205;-57
2021/05/19 09:51:01;;;;;;;9.10;5.70;;;;;;;22.49;49.06;99317.23;1674981;85;21225;-59
2021/05/19 09:54:06;;;;;;;8.65;6.30;;;;;;;22.64;49.30;99317.28;1675082;84;21895;-58
2021/05/19 09:57:18;;;;;;;7.70;5.97;;;;;;;22.63;48.37;99317.56;1643096;86;21375;-56
2021/05/19 10:00:32;;;;;;;8.45;5.25;;;;;;;22.52;48.31;99310.28;1663627;84;21209;-59
2021/05/19 10:03:39;;;;;;;9.40;5.05;;;;;;;22.69;48.28;99310.27;1643774;86;21237;-59
2021/05/19 10:06:43;;;;;;;11.35;5.30;;;;;;;22.85;47.67;99305.54;1671192;84;21200;-58
2021/05/19 10:09:51;;;;;;;11.40;5.30;;;;;;;22.85;47.16;99305.54;1656512;86;21296;-58
2021/05/19 10:12:56;;;;;;;9.33;5.72;;;;;;;22.93;46.91;99299.39;1675645;85;21345;-59
2021/05/19 10:16:04;;;;;;;9.95;5.55;;;;;;;23.00;46.82;99297.13;1641603;85;21220;-56
2021/05/19 10:19:09;;;;;;;8.95;5.05;;;;;;;23.12;47.55;99294.29;1645076;86;21239;-58
2021/05/19 10:22:20;;;;;;;10.60;5.03;;;;;;;23.39;47.77;99288.36;1674591;85;21303;-58
2021/05/19 10:25:44;;;;;;;9.55;6.67;;;;;;;23.63;46.97;99286.02;1688040;83;21282;-58
2021/05/19 10:28:54;;;;;;;19.48;5.72;;;;;;;23.52;45.53;99277.97;1674753;85;21215;-58
2021/05/19 10:32:00;;;;;;;13.62;6.30;;;;;;;23.25;45.73;99281.68;1691101;79;21259;-58
2021/05/19 10:35:13;;;;;;;11.60;5.35;;;;;;;23.22;46.48;99273.88;1674368;84;21247;-58
2021/05/19 10:38:36;;;;;;;10.90;5.83;;;;;;;23.44;46.11;99268.23;1656688;84;21436;-58
2021/05/19 10:41:55;;;;;;;10.15;5.90;;;;;;;23.48;44.71;99269.91;1657801;84;21748;-59
2021/05/19 10:45:15;;;;;;;7.35;5.50;;;;;;;23.43;44.32;99263.78;1672695;84;21338;-58
2021/05/19 10:48:38;;;;;;;6.92;4.33;;;;;;;23.72;44.27;99265.86;1675003;83;21290;-58
2021/05/19 10:51:58;;;;;;;8.63;6.15;;;;;;;24.09;42.97;99257.25;1664634;84;21219;-58
2021/05/19 10:58:56;;;;;;;8.55;6.62;;;;;;;24.08;41.52;99250.00;1650417;85;21768;-58
2021/05/19 11:02:01;;;;;;;9.83;6.30;;;;;;;23.90;42.22;99254.83;1655243;84;21219;-59
2021/05/19 11:05:19;;;;;;;13.20;6.65;;;;;;;24.00;42.98;99256.20;1673348;84;21249;-59
2021/05/19 11:08:30;;;;;;;11.28;7.15;;;;;;;23.82;43.98;99262.44;1671071;83;21834;-57
2021/05/19 11:11:35;;;;;;;9.55;7.87;;;;;;;23.65;45.14;99267.58;1664587;85;21481;-60
2021/05/19 11:14:47;;;;;;;11.40;7.10;;;;;;;23.50;45.93;99271.27;1668233;84;21219;-59
2021/05/19 11:17:54;;;;;;;9.35;7.22;;;;;;;23.33;46.53;99272.75;1664550;84;21205;-58
2021/05/19 11:20:58;;;;;;;10.78;7.03;;;;;;;23.15;46.95;99273.36;1673578;84;22273;-59
2021/05/19 11:24:25;;;;;;;10.23;6.95;;;;;;;22.92;46.78;99271.17;1643456;87;21204;-58
2021/05/19 11:27:37;;;;;;;9.28;6.78;;;;;;;22.69;47.15;99274.00;1648642;84;21318;-59
2021/05/19 11:30:42;;;;;;;9.45;6.60;;;;;;;22.79;47.62;99274.55;1673545;84;21204;-60
2021/05/19 11:34:05;;;;;;;8.43;5.83;;;;;;;22.83;46.84;99267.30;1673919;84;21338;-59
2021/05/19 11:37:15;;;;;;;9.35;6.10;;;;;;;23.12;47.31;99265.55;1643420;86;21235;-58
2021/05/19 11:40:22;;;;;;;5.30;4.67;;;;;;;23.45;47.07;99259.30;1644698;84;21737;-60
2021/05/19 11:43:28;;;;;;;7.53;4.97;;;;;;;23.96;45.54;99252.27;1647162;86;21831;-59
2021/05/19 11:46:36;;;;;;;7.50;4.80;;;;;;;24.36;42.83;99253.40;1647058;86;21288;-58
2021/05/19 11:49:42;;;;;;;7.78;4.58;;;;;;;24.59;43.12;99243.41;1619021;88;21247;-58
2021/05/19 11:53:12;;;;;;;7.10;4.58;;;;;;;24.68;42.54;99243.91;1647695;86;21231;-59
2021/05/19 11:56:19;;;;;;;6.55;4.15;;;;;;;24.64;41.79;99235.78;1647324;86;21242;-58
2021/05/19 11:59:29;;;;;;;6.08;4.25;;;;;;;24.72;41.54;99239.95;1644105;86;21227;-58
2021/05/19 12:02:38;;;;;;;6.70;3.42;;;;;;;24.79;41.36;99228.67;1671716;84;21731;-58
2021/05/19 12:05:56;;;;;;;5.95;4.83;;;;;;;25.00;38.85;99224.52;1645903;86;21772;-58
2021/05/19 12:09:02;;;;;;;7.60;4.53;;;;;;;24.67;39.65;99217.02;1678193;85;21749;-57
2021/05/19 12:12:19;;;;;;;6.10;4.37;;;;;;;24.59;41.50;99213.43;1676014;84;21788;-58
2021/05/19 12:15:25;;;;;;;6.65;3.92;;;;;;;24.84;41.37;99220.22;1674900;85;21303;-58
2021/05/19 12:18:31;;;;;;;5.70;4.08;;;;;;;25.19;41.34;99225.13;1675066;85;21236;-58
2021/05/19 12:21:39;;;;;;;5.95;3.72;;;;;;;25.37;40.41;99225.78;1675367;85;21206;-60
2021/05/19 12:24:47;;;;;;;6.75;2.98;;;;;;;25.14;39.83;99228.83;1646837;86;21224;-58
2021/05/19 12:28:09;;;;;;;4.90;2.80;;;;;;;24.87;39.48;99228.02;1644082;85;21280;-59
2021/05/19 12:31:13;;;;;;;3.87;2.80;;;;;;;24.69;39.39;99237.72;1624593;86;21777;-59
2021/05/19 12:34:26;;;;;;;8.50;2.67;;;;;;;24.62;39.46;99240.86;1649181;81;21270;-58
2021/05/19 12:38:01;;;;;;;5.42;2.80;;;;;;;24.47;39.58;99246.59;1651249;85;21300;-58
2021/05/19 12:41:06;;;;;;;30.37;3.42;;;;;;;24.32;39.82;99255.68;1677020;85;21231;-60
2021/05/19 12:44:13;;;;;;;7.47;2.08;;;;;;;23.95;40.28;99288.36;1677123;85;21202;-58
2021/05/19 12:47:22;;;;;;;7.92;2.30;;;;;;;23.24;41.94;99298.17;1670929;84;21213;-56
2021/05/19 12:50:30;;;;;;;4.05;1.62;;;;;;;22.63;43.88;99303.61;1634528;87;21601;-57
2021/05/19 12:53:56;;;;;;;14.35;2.37;;;;;;;21.97;45.04;99303.54;1682812;83;21366;-55
2021/05/19 12:57:18;;;;;;;6.92;2.00;;;;;;;21.38;47.31;99318.90;1677898;85;21741;-56
2021/05/19 13:00:28;;;;;;;4.28;2.10;;;;;;;20.91;51.54;99320.84;1708123;83;21276;-56
2021/05/19 13:03:39;;;;;;;5.17;1.70;;;;;;;20.43;52.75;99336.31;1657566;84;21384;-59
2021/05/19 13:06:45;;;;;;;4.00;1.55;;;;;;;19.93;53.64;99336.62;1650612;87;21756;-57
2021/05/19 13:09:55;;;;;;;3.87;2.00;;;;;;;19.59;54.81;99342.61;1650246;86;21374;-58
2021/05/19 13:13:53;;;;;;;3.40;2.58;;;;;;;19.30;55.14;99345.59;1651854;86;21270;-58
2021/05/19 13:16:37;;;;;;;5.00;2.15;;;;;;;18.95;56.18;99346.98;1646292;86;21764;-57
2021/05/19 13:20:14;;;;;;;5.08;2.37;;;;;;;18.64;57.14;99348.47;1650333;87;21461;-56
2021/05/19 13:23:22;;;;;;;5.10;3.33;;;;;;;18.41;58.45;99351.96;1701432;83;21221;-58
2021/05/19 13:26:37;;;;;;;5.35;3.05;;;;;;;18.14;59.74;99351.71;1670898;85;21288;-57
2021/05/19 13:29:49;;;;;;;5.47;3.35;;;;;;;17.96;61.33;99353.87;1661487;86;21285;-57
2021/05/19 13:39:34;;;;;;;4.30;3.08;;;;;;;17.72;63.84;99355.37;1669390;85;21744;-58
2021/05/19 13:42:42;;;;;;;4.25;2.72;;;;;;;17.67;64.40;99353.87;1651316;86;21744;-59
2021/05/19 13:45:48;;;;;;;5.35;3.10;;;;;;;17.67;64.82;99353.03;1668816;85;21343;-58
2021/05/19 13:48:53;;;;;;;7.65;3.42;;;;;;;17.68;65.44;99350.55;1701330;84;21186;-57
2021/05/19 13:52:08;;;;;;;9.05;4.00;;;;;;;17.71;66.15;99352.28;1679954;85;21613;-58
2021/05/19 13:55:14;;;;;;;5.85;3.52;;;;;;;17.71;65.90;99349.52;1695026;83;21246;-59
2021/05/19 13:58:19;;;;;;;5.75;4.03;;;;;;;17.71;66.07;99339.83;1652531;84;21213;-61
2021/05/19 14:01:27;;;;;;;14.03;3.20;;;;;;;17.72;66.89;99334.61;1643391;85;21232;-61
2021/05/19 14:04:33;;;;;;;4.87;3.37;;;;;;;17.76;66.87;99330.23;1646776;86;21395;-59
2021/05/19 14:07:40;;;;;;;10.25;6.97;;;;;;;17.76;67.77;99329.39;1668310;84;21924;-60
2021/05/19 14:11:02;;;;;;;5.35;3.35;;;;;;;17.70;68.11;99326.23;1700888;82;21868;-57
2021/05/19 14:14:18;;;;;;;4.08;3.10;;;;;;;17.56;68.06;99317.40;1672999;85;21236;-61
2021/05/19 14:17:23;;;;;;;8.40;4.00;;;;;;;17.57;68.85;99319.06;1658228;84;21880;-60
2021/05/19 14:27:22;;;;;;;6.72;2.45;;;;;;;17.92;68.27;99307.83;1647840;86;21206;-59
2021/05/19 14:30:25;;;;;;;6.42;2.80;;;;;;;18.04;66.17;99305.84;1675365;84;21735;-61
2021/05/19 14:33:33;;;;;;;4.08;2.45;;;;;;;18.14;65.35;99307.39;1708078;83;21239;-59
2021/05/19 14:43:47;;;;;;;3.95;2.30;;;;;;;18.35;65.42;99298.34;1670282;84;21682;-60
2021/05/19 14:46:47;;;;;;;5.72;2.52;;;;;;;18.63;64.24;99296.88;1650575;86;21196;-59
2021/05/19 14:59:55;;;;;;;9.55;5.83;;;;;;;19.01;65.88;99309.36;1660551;86;21213;-59
2021/05/19 15:03:01;;;;;;;8.65;5.37;;;;;;;19.14;64.75;99304.83;1686795;84;21179;-59
2021/05/19 15:06:09;;;;;;;9.35;5.05;;;;;;;19.44;65.47;99300.80;1652806;86;21963;-59
2021/05/19 15:09:14;;;;;;;7.72;4.70;;;;;;;20.04;63.64;99295.91;1684650;85;21243;-59
2021/05/19 15:12:22;;;;;;;8.85;4.20;;;;;;;20.48;61.31;99297.44;1653094;86;21747;-58
2021/05/19 15:15:29;;;;;;;9.05;4.40;;;;;;;21.00;59.19;99304.48;1631574;87;21297;-59
2021/05/19 15:18:36;;;;;;;9.50;3.47;;;;;;;21.38;57.96;99312.48;1652172;86;21273;-58